createdAt,value
2022-10-13T00:01:16.803Z,98427.09
2022-10-13T00:03:47.965Z,98421.63
2022-10-13T00:06:16.735Z,98407.19
2022-10-13T00:08:43.735Z,98409.03
2022-10-13T00:11:19.802Z,98412.44
2022-10-13T00:13:51.892Z,98419.69
2022-10-13T00:16:21.044Z,98414.88
2022-10-13T00:18:48.089Z,98411.69
2022-10-13T00:21:19.467Z,98407.66
2022-10-13T00:23:49.510Z,98406.34
2022-10-13T00:26:17.404Z,98399.63
2022-10-13T00:28:52.026Z,98409.59
2022-10-13T00:31:26.913Z,98414.88
2022-10-13T00:33:54.247Z,98413.97
2022-10-13T00:36:23.386Z,98417.78
2022-10-13T00:38:50.284Z,98421.13
2022-10-13T00:41:18.637Z,98416.81
2022-10-13T00:43:58.669Z,98415.97
2022-10-13T00:46:31.416Z,98416.22
2022-10-13T00:49:10.861Z,98417.66
2022-10-13T00:51:44.065Z,98416.41
2022-10-13T00:54:13.828Z,98417.06
2022-10-13T00:56:42.937Z,98420.84
2022-10-13T00:59:16.720Z,98412.94
2022-10-13T01:01:43.280Z,98410.59
2022-10-13T01:04:10.523Z,98414.28
2022-10-13T01:06:43.694Z,98408.06
2022-10-13T01:09:10.206Z,98409.59
2022-10-13T01:12:05.870Z,98398.06
2022-10-13T01:14:46.671Z,98408.25
2022-10-13T01:17:46.312Z,98404.47
2022-10-13T01:20:34.427Z,98406.03
2022-10-13T01:23:14.274Z,98412.09
2022-10-13T01:26:14.102Z,98404.06
2022-10-13T01:28:57.406Z,98408.25
2022-10-13T01:31:47.527Z,98404.63
2022-10-13T01:34:31.480Z,98400.38
2022-10-13T01:37:00.242Z,98399.09
2022-10-13T01:39:42.360Z,98398.25
2022-10-13T01:42:17.015Z,98394.69
2022-10-13T01:44:51.297Z,98392.34
2022-10-13T01:47:19.274Z,98391.13
2022-10-13T01:49:46.693Z,98389.91
2022-10-13T01:52:17.721Z,98384.41
2022-10-13T01:54:52.183Z,98382.88
2022-10-13T01:57:34.460Z,98378.88
2022-10-13T02:00:35.385Z,98375.75
2022-10-13T02:03:34.409Z,98380.66
2022-10-13T02:06:20.915Z,98384.84
2022-10-13T02:08:51.766Z,98389.41
2022-10-13T02:11:20.595Z,98386.91
2022-10-13T02:13:59.326Z,98387.63
2022-10-13T02:16:30.205Z,98379.44
2022-10-13T02:18:58.331Z,98385.91
2022-10-13T02:21:25.572Z,98378.88
2022-10-13T02:23:52.413Z,98376.00
2022-10-13T02:26:19.128Z,98374.66
2022-10-13T02:28:54.141Z,98372.56
2022-10-13T02:31:20.944Z,98372.13
2022-10-13T02:33:47.549Z,98373.28
2022-10-13T02:36:16.556Z,98380.56
2022-10-13T02:38:43.036Z,98372.81
2022-10-13T02:41:12.068Z,98375.09
2022-10-13T02:43:38.924Z,98370.66
2022-10-13T02:46:05.627Z,98380.25
2022-10-13T02:48:32.339Z,98366.41
2022-10-13T02:51:02.614Z,98364.34
2022-10-13T02:53:29.149Z,98370.16
2022-10-13T02:55:55.696Z,98357.94
2022-10-13T02:58:22.323Z,98365.19
2022-10-13T03:00:50.659Z,98361.28
2022-10-13T03:03:17.216Z,98371.63
2022-10-13T03:05:44.576Z,98364.41
2022-10-13T03:08:11.416Z,98367.25
2022-10-13T03:10:37.985Z,98365.88
2022-10-13T03:13:09.088Z,98368.28
2022-10-13T03:15:35.564Z,98362.97
2022-10-13T03:18:02.218Z,98354.59
2022-10-13T03:20:30.447Z,98350.41
2022-10-13T03:22:57.225Z,98342.66
2022-10-13T03:25:23.717Z,98348.56
2022-10-13T03:27:52.516Z,98336.63
2022-10-13T03:30:19.054Z,98340.09
2022-10-13T03:32:45.974Z,98337.03
2022-10-13T03:35:12.731Z,98335.66
2022-10-13T03:37:39.235Z,98341.41
2022-10-13T03:40:06.581Z,98340.25
2022-10-13T03:42:37.639Z,98342.59
2022-10-13T03:45:06.887Z,98347.22
2022-10-13T03:47:35.890Z,98339.63
2022-10-13T03:50:03.654Z,98339.34
2022-10-13T03:52:30.215Z,98348.22
2022-10-13T03:54:59.030Z,98355.19
2022-10-13T03:57:27.279Z,98345.03
2022-10-13T03:59:56.122Z,98341.69
2022-10-13T04:02:23.405Z,98347.31
2022-10-13T04:04:56.077Z,98337.03
2022-10-13T04:07:22.823Z,98336.13
2022-10-13T04:09:49.557Z,98329.16
2022-10-13T04:12:20.814Z,98324.97
2022-10-13T04:14:47.672Z,98320.84
2022-10-13T04:17:17.643Z,98328.91
2022-10-13T04:19:46.356Z,98342.19
2022-10-13T04:22:12.855Z,98340.75
2022-10-13T04:24:39.404Z,98349.38
2022-10-13T04:27:10.387Z,98344.03
2022-10-13T04:29:36.975Z,98342.19
2022-10-13T04:32:03.867Z,98347.28
2022-10-13T04:34:32.241Z,98348.16
2022-10-13T04:37:00.499Z,98356.84
2022-10-13T04:39:27.054Z,98343.72
2022-10-13T04:41:55.411Z,98350.13
2022-10-13T04:44:22.019Z,98352.81
2022-10-13T04:46:48.545Z,98352.41
2022-10-13T04:49:16.964Z,98346.19
2022-10-13T04:51:43.502Z,98341.50
2022-10-13T04:54:10.147Z,98341.09
2022-10-13T04:56:36.863Z,98336.47
2022-10-13T04:59:05.894Z,98329.19
2022-10-13T05:01:35.921Z,98336.31
2022-10-13T05:04:06.221Z,98334.13
2022-10-13T05:06:35.188Z,98338.00
2022-10-13T05:09:02.414Z,98330.72
2022-10-13T05:11:37.791Z,98336.56
2022-10-13T05:14:13.951Z,98330.72
2022-10-13T05:16:40.421Z,98337.56
2022-10-13T05:19:07.307Z,98340.72
2022-10-13T05:21:34.038Z,98341.13
2022-10-13T05:24:04.146Z,98339.53
2022-10-13T05:26:35.284Z,98348.94
2022-10-13T05:29:02.999Z,98333.19
2022-10-13T05:31:31.005Z,98337.50
2022-10-13T05:33:57.635Z,98329.47
2022-10-13T05:36:36.758Z,98323.72
2022-10-13T05:39:08.434Z,98322.66
2022-10-13T05:41:34.970Z,98309.47
2022-10-13T05:44:06.359Z,98301.72
2022-10-13T05:46:32.965Z,98304.13
2022-10-13T05:48:59.531Z,98304.28
2022-10-13T05:51:30.519Z,98311.28
2022-10-13T05:54:26.075Z,98317.97
2022-10-13T05:57:10.691Z,98321.25
2022-10-13T05:59:42.389Z,98329.13
2022-10-13T06:02:13.688Z,98330.34
2022-10-13T06:04:45.256Z,98324.59
2022-10-13T06:07:13.083Z,98330.50
2022-10-13T06:09:46.403Z,98322.47
2022-10-13T06:12:14.600Z,98317.06
2022-10-13T06:14:43.029Z,98316.31
2022-10-13T06:17:09.726Z,98323.75
2022-10-13T06:19:36.564Z,98328.81
2022-10-13T06:22:03.852Z,98318.91
2022-10-13T06:24:32.343Z,98327.03
2022-10-13T06:26:59.055Z,98322.88
2022-10-13T06:29:25.633Z,98320.63
2022-10-13T06:31:56.605Z,98315.38
2022-10-13T06:34:23.089Z,98316.44
2022-10-13T06:36:49.563Z,98306.75
2022-10-13T06:39:17.807Z,98308.44
2022-10-13T06:41:46.008Z,98311.78
2022-10-13T06:44:12.571Z,98314.41
2022-10-13T06:46:39.225Z,98314.41
2022-10-13T06:49:05.708Z,98314.41
2022-10-13T06:51:32.362Z,98323.75
2022-10-13T06:53:59.216Z,98311.41
2022-10-13T06:56:25.951Z,98318.00
2022-10-13T06:58:52.433Z,98314.56
2022-10-13T07:01:21.367Z,98318.44
2022-10-13T07:03:52.927Z,98318.88
2022-10-13T07:06:19.555Z,98317.00
2022-10-13T07:08:47.881Z,98315.56
2022-10-13T07:11:16.327Z,98315.59
2022-10-13T07:13:46.515Z,98324.50
2022-10-13T07:16:19.044Z,98325.25
2022-10-13T07:18:47.521Z,98322.88
2022-10-13T07:21:14.033Z,98319.38
2022-10-13T07:23:45.079Z,98313.94
2022-10-13T07:26:14.833Z,98317.81
2022-10-13T07:28:43.433Z,98305.78
2022-10-13T07:31:17.714Z,98307.72
2022-10-13T07:33:46.714Z,98314.38
2022-10-13T07:36:21.434Z,98301.22
2022-10-13T07:38:56.106Z,98305.56
2022-10-13T07:41:24.414Z,98300.97
2022-10-13T07:43:57.675Z,98306.88
2022-10-13T07:46:25.550Z,98305.81
2022-10-13T07:48:53.837Z,98313.38
2022-10-13T07:51:21.642Z,98308.31
2022-10-13T07:53:50.843Z,98306.75
2022-10-13T07:56:19.480Z,98309.47
2022-10-13T07:58:47.551Z,98308.34
2022-10-13T08:01:19.536Z,98314.59
2022-10-13T08:03:49.811Z,98317.31
2022-10-13T08:06:17.792Z,98311.09
2022-10-13T08:08:48.898Z,98314.59
2022-10-13T08:11:17.233Z,98313.06
2022-10-13T08:13:55.454Z,98323.97
2022-10-13T08:16:22.686Z,98327.09
2022-10-13T08:18:49.455Z,98323.97
2022-10-13T08:21:52.819Z,98323.19
2022-10-13T08:24:13.038Z,98325.53
2022-10-13T08:26:44.732Z,98324.00
2022-10-13T08:29:28.191Z,98329.03
2022-10-13T08:31:57.583Z,98317.75
2022-10-13T08:34:25.136Z,98315.03
2022-10-13T08:36:56.754Z,98311.13
2022-10-13T08:39:26.585Z,98317.34
2022-10-13T08:41:54.822Z,98316.97
2022-10-13T08:47:21.734Z,98318.16
2022-10-13T08:49:48.543Z,98320.09
2022-10-13T08:52:21.586Z,98325.16
2022-10-13T08:54:51.807Z,98327.09
2022-10-13T08:57:18.747Z,98319.31
2022-10-13T08:59:46.541Z,98318.16
2022-10-13T09:02:30.781Z,98322.00
2022-10-13T09:05:01.753Z,98320.81
2022-10-13T09:07:34.536Z,98325.50
2022-10-13T09:10:01.007Z,98317.34
2022-10-13T09:12:27.863Z,98309.91
2022-10-13T09:15:03.083Z,98309.50
2022-10-13T09:17:30.763Z,98306.75
2022-10-13T09:20:22.540Z,98310.50
2022-10-13T09:23:22.552Z,98308.91
2022-10-13T09:25:53.391Z,98306.06
2022-10-13T09:28:31.732Z,98304.38
2022-10-13T09:31:29.908Z,98307.75
2022-10-13T09:34:24.182Z,98307.47
2022-10-13T09:37:05.593Z,98315.97
2022-10-13T09:39:33.760Z,98308.50
2022-10-13T09:42:22.730Z,98314.59
2022-10-13T09:44:58.575Z,98308.22
2022-10-13T09:47:28.694Z,98303.84
2022-10-13T09:50:20.730Z,98308.19
2022-10-13T09:52:47.879Z,98309.25
2022-10-13T09:55:37.247Z,98308.53
2022-10-13T09:58:10.800Z,98305.13
2022-10-13T10:00:37.738Z,98307.88
2022-10-13T10:03:20.246Z,98305.13
2022-10-13T10:05:59.589Z,98307.09
2022-10-13T10:09:03.418Z,98300.91
2022-10-13T10:11:37.590Z,98304.00
2022-10-13T10:14:28.597Z,98295.28
2022-10-13T10:17:20.077Z,98292.22
2022-10-13T10:19:59.122Z,98298.09
2022-10-13T10:22:28.344Z,98301.41
2022-10-13T10:24:59.998Z,98302.75
2022-10-13T10:27:26.687Z,98305.81
2022-10-13T10:30:00.911Z,98308.50
2022-10-13T10:32:33.528Z,98297.84
2022-10-13T10:35:05.376Z,98299.19
2022-10-13T10:37:31.822Z,98299.59
2022-10-13T10:40:22.869Z,98293.84
2022-10-13T10:43:04.382Z,98299.16
2022-10-13T10:45:39.077Z,98292.56
2022-10-13T10:48:27.019Z,98306.94
2022-10-13T10:50:58.159Z,98300.91
2022-10-13T10:53:56.931Z,98297.19
2022-10-13T10:56:41.235Z,98292.06
2022-10-13T10:59:29.279Z,98288.63
2022-10-13T11:02:14.204Z,98282.56
2022-10-13T11:04:44.175Z,98283.34
2022-10-13T11:07:30.984Z,98283.22
2022-10-13T11:09:57.418Z,98288.72
2022-10-13T11:12:25.344Z,98276.50
2022-10-13T11:15:04.156Z,98276.19
2022-10-13T11:17:39.202Z,98273.63
2022-10-13T11:20:20.723Z,98277.19
2022-10-13T11:22:59.365Z,98270.22
2022-10-13T11:25:41.824Z,98262.91
2022-10-13T11:28:23.073Z,98270.00
2022-10-13T11:31:12.812Z,98261.50
2022-10-13T11:33:41.898Z,98254.06
2022-10-13T11:36:31.471Z,98253.16
2022-10-13T11:39:21.264Z,98259.31
2022-10-13T11:42:20.508Z,98253.06
2022-10-13T11:45:11.538Z,98240.09
2022-10-13T11:48:10.912Z,98231.72
2022-10-13T11:50:48.513Z,98229.44
2022-10-13T11:53:41.709Z,98223.97
2022-10-13T11:56:23.537Z,98217.72
2022-10-13T11:58:51.871Z,98218.41
2022-10-13T12:01:19.521Z,98204.06
2022-10-13T12:03:47.013Z,98212.97
2022-10-13T12:06:20.936Z,98202.84
2022-10-13T12:08:49.835Z,98192.50
2022-10-13T12:11:30.732Z,98187.09
2022-10-13T12:13:58.254Z,98188.25
2022-10-13T12:16:27.732Z,98177.06
2022-10-13T12:19:07.403Z,98172.03
2022-10-13T12:21:34.197Z,98178.00
2022-10-13T12:24:09.782Z,98175.25
2022-10-13T12:26:38.305Z,98165.44
2022-10-13T12:29:14.319Z,98159.69
2022-10-13T12:31:43.494Z,98164.25
2022-10-13T12:34:27.738Z,98158.94
2022-10-13T12:37:03.605Z,98158.25
2022-10-13T12:39:33.455Z,98160.94
2022-10-13T12:42:03.274Z,98160.53
2022-10-13T12:44:32.033Z,98165.81
2022-10-13T12:47:00.905Z,98171.69
2022-10-13T12:49:37.134Z,98175.41
2022-10-13T12:52:11.143Z,98183.44
2022-10-13T12:54:40.485Z,98183.03
2022-10-13T12:57:37.590Z,98172.81
2022-10-13T13:00:27.753Z,98172.84
2022-10-13T13:03:08.953Z,98167.88
2022-10-13T13:05:50.852Z,98160.31
2022-10-13T13:08:36.051Z,98159.72
2022-10-13T13:11:07.180Z,98160.41
2022-10-13T13:13:34.067Z,98169.09
2022-10-13T13:16:18.987Z,98170.59
2022-10-13T13:18:49.747Z,98168.16
2022-10-13T13:21:21.340Z,98162.09
2022-10-13T13:23:52.918Z,98162.16
2022-10-13T13:26:23.368Z,98149.03
2022-10-13T13:28:56.485Z,98146.31
2022-10-13T13:31:26.567Z,98136.16
2022-10-13T13:33:55.386Z,98128.25
2022-10-13T13:36:24.306Z,98118.00
2022-10-13T13:38:51.843Z,98121.44
2022-10-13T13:41:18.698Z,98137.53
2022-10-13T13:43:45.474Z,98136.06
2022-10-13T13:46:23.427Z,98129.41
2022-10-13T13:48:50.671Z,98122.31
2022-10-13T13:51:19.518Z,98117.34
2022-10-13T13:53:46.421Z,98121.97
2022-10-13T13:56:14.546Z,98119.97
2022-10-13T13:58:41.139Z,98117.72
2022-10-13T14:01:09.869Z,98129.63
2022-10-13T14:03:36.412Z,98125.97
2022-10-13T14:06:03.104Z,98138.25
2022-10-13T14:11:11.116Z,98128.22
2022-10-13T14:13:50.019Z,98130.66
2022-10-13T14:16:21.057Z,98122.09
2022-10-13T14:18:47.529Z,98123.78
2022-10-13T14:21:14.498Z,98127.78
2022-10-13T14:23:48.880Z,98131.63
2022-10-13T14:26:17.646Z,98133.09
2022-10-13T14:28:46.537Z,98133.00
2022-10-13T14:31:13.100Z,98123.47
2022-10-13T14:33:41.566Z,98128.81
2022-10-13T14:36:08.543Z,98126.44
2022-10-13T14:38:35.247Z,98131.47
2022-10-13T14:41:07.816Z,98131.03
2022-10-13T14:43:34.294Z,98128.03
2022-10-13T14:46:02.933Z,98132.47
2022-10-13T14:48:44.240Z,98119.75
2022-10-13T14:51:10.940Z,98115.81
2022-10-13T14:53:40.279Z,98125.63
2022-10-13T14:56:19.263Z,98127.22
2022-10-13T14:58:48.797Z,98125.75
2022-10-13T15:01:16.530Z,98117.66
2022-10-13T15:03:51.473Z,98116.09
2022-10-13T15:06:24.203Z,98116.16
2022-10-13T15:08:51.758Z,98114.75
2022-10-13T15:11:22.518Z,98115.63
2022-10-13T15:13:49.292Z,98114.09
2022-10-13T15:16:21.679Z,98112.53
2022-10-13T15:18:52.495Z,98103.63
2022-10-13T15:21:19.603Z,98117.75
2022-10-13T15:23:46.348Z,98112.81
2022-10-13T15:26:14.671Z,98116.81
2022-10-13T15:28:46.638Z,98120.81
2022-10-13T15:31:14.159Z,98114.25
2022-10-13T15:33:50.971Z,98114.72
2022-10-13T15:36:18.102Z,98108.59
2022-10-13T15:38:45.481Z,98113.31
2022-10-13T15:41:14.608Z,98111.03
2022-10-13T15:43:41.126Z,98107.19
2022-10-13T15:46:21.021Z,98110.78
2022-10-13T15:48:53.403Z,98112.81
2022-10-13T15:51:22.503Z,98112.88
2022-10-13T15:53:49.199Z,98105.94
2022-10-13T15:56:16.853Z,98114.94
2022-10-13T15:58:43.986Z,98110.72
2022-10-13T16:01:12.367Z,98107.28
2022-10-13T16:03:39.650Z,98107.72
2022-10-13T16:09:00.979Z,98108.22
2022-10-13T16:11:27.695Z,98105.53
2022-10-13T16:13:54.537Z,98113.75
2022-10-13T16:16:25.744Z,98117.31
2022-10-13T16:18:52.296Z,98118.94
2022-10-13T16:21:22.033Z,98122.13
2022-10-13T16:23:48.944Z,98127.22
2022-10-13T16:26:17.554Z,98118.31
2022-10-13T16:28:45.499Z,98126.09
2022-10-13T16:31:22.138Z,98130.78
2022-10-13T16:33:52.685Z,98114.47
2022-10-13T16:36:19.962Z,98125.78
2022-10-13T16:38:52.152Z,98121.53
2022-10-13T16:41:18.862Z,98127.00
2022-10-13T16:43:46.365Z,98127.78
2022-10-13T16:46:17.133Z,98134.06
2022-10-13T16:48:44.962Z,98133.34
2022-10-13T16:51:24.035Z,98134.94
2022-10-13T16:54:02.983Z,98150.53
2022-10-13T16:56:33.324Z,98149.78
2022-10-13T16:59:01.863Z,98153.28
2022-10-13T17:01:29.809Z,98147.84
2022-10-13T17:03:57.109Z,98155.63
2022-10-13T17:06:26.357Z,98157.94
2022-10-13T17:08:52.887Z,98161.84
2022-10-13T17:11:24.563Z,98159.50
2022-10-13T17:13:51.939Z,98162.63
2022-10-13T17:16:19.100Z,98163.00
2022-10-13T17:18:47.609Z,98159.88
2022-10-13T17:21:16.753Z,98166.09
2022-10-13T17:23:47.509Z,98167.63
2022-10-13T17:26:16.459Z,98166.81
2022-10-13T17:28:49.834Z,98168.78
2022-10-13T17:31:21.644Z,98167.63
2022-10-13T17:33:49.084Z,98175.38
2022-10-13T17:36:24.232Z,98178.47
2022-10-13T17:38:51.999Z,98169.91
2022-10-13T17:41:19.136Z,98176.91
2022-10-13T17:43:45.791Z,98171.84
2022-10-13T17:46:35.095Z,98173.38
2022-10-13T17:49:00.802Z,98177.28
2022-10-13T17:51:27.944Z,98177.69
2022-10-13T17:53:55.126Z,98175.34
2022-10-13T17:56:26.419Z,98176.88
2022-10-13T17:58:53.532Z,98180.00
2022-10-13T18:01:31.875Z,98182.31
2022-10-13T18:04:00.626Z,98183.06
2022-10-13T18:06:41.114Z,98183.84
2022-10-13T18:09:10.828Z,98176.06
2022-10-13T18:11:40.089Z,98178.38
2022-10-13T18:14:07.195Z,98171.78
2022-10-13T18:16:34.200Z,98176.03
2022-10-13T18:19:01.079Z,98174.47
2022-10-13T18:21:27.798Z,98175.66
2022-10-13T18:23:58.075Z,98179.53
2022-10-13T18:26:26.178Z,98176.38
2022-10-13T18:28:54.854Z,98186.09
2022-10-13T18:31:27.629Z,98181.44
2022-10-13T18:33:56.438Z,98174.84
2022-10-13T18:36:28.531Z,98166.28
2022-10-13T18:39:01.709Z,98169.41
2022-10-13T18:41:31.373Z,98175.22
2022-10-13T18:43:57.997Z,98169.78
2022-10-13T18:46:24.664Z,98161.25
2022-10-13T18:48:51.206Z,98161.25
2022-10-13T18:51:19.489Z,98163.97
2022-10-13T18:53:50.601Z,98165.91
2022-10-13T18:56:19.877Z,98160.47
2022-10-13T18:58:46.829Z,98160.88
2022-10-13T19:01:16.569Z,98154.63
2022-10-13T19:03:43.443Z,98158.53
2022-10-13T19:06:13.588Z,98161.25
2022-10-13T19:08:42.415Z,98148.03
2022-10-13T19:11:17.849Z,98156.16
2022-10-13T19:13:52.231Z,98152.69
2022-10-13T19:16:21.521Z,98158.13
2022-10-13T19:18:49.056Z,98159.69
2022-10-13T19:21:16.587Z,98155.03
2022-10-13T19:23:43.586Z,98158.91
2022-10-13T19:26:16.144Z,98160.88
2022-10-13T19:28:43.928Z,98156.19
2022-10-13T19:31:13.242Z,98162.41
2022-10-13T19:33:44.756Z,98160.06
2022-10-13T19:36:20.314Z,98154.25
2022-10-13T19:38:46.788Z,98152.69
2022-10-13T19:41:13.246Z,98151.91
2022-10-13T19:43:46.429Z,98151.13
2022-10-13T19:46:13.085Z,98156.56
2022-10-13T19:48:39.610Z,98163.56
2022-10-13T19:51:07.640Z,98164.31
2022-10-13T19:53:37.807Z,98177.91
2022-10-13T19:56:05.405Z,98178.31
2022-10-13T19:58:34.163Z,98174.81
2022-10-13T20:01:06.796Z,98176.75
2022-10-13T20:03:33.746Z,98177.53
2022-10-13T20:06:04.367Z,98177.53
2022-10-13T20:08:31.189Z,98184.50
2022-10-13T20:10:57.886Z,98191.13
2022-10-13T20:13:24.795Z,98183.75
2022-10-13T20:15:51.305Z,98184.50
2022-10-13T20:18:17.911Z,98190.75
2022-10-13T20:20:50.319Z,98190.75
2022-10-13T20:23:16.776Z,98195.78
2022-10-13T20:25:43.272Z,98185.69
2022-10-13T20:28:11.510Z,98190.72
2022-10-13T20:30:39.884Z,98185.28
2022-10-13T20:33:06.794Z,98191.47
2022-10-13T20:35:35.526Z,98193.84
2022-10-13T20:38:02.166Z,98192.28
2022-10-13T20:40:28.648Z,98198.47
2022-10-13T20:42:55.282Z,98194.59
2022-10-13T20:45:21.786Z,98196.16
2022-10-13T20:47:50.139Z,98201.59
2022-10-13T20:50:17.211Z,98191.09
2022-10-13T20:52:43.696Z,98187.19
2022-10-13T20:55:10.319Z,98191.84
2022-10-13T20:57:38.824Z,98196.09
2022-10-13T21:00:06.021Z,98190.66
2022-10-13T21:02:32.865Z,98190.66
2022-10-13T21:04:59.737Z,98199.56
2022-10-13T21:07:28.401Z,98193.38
2022-10-13T21:09:58.493Z,98194.53
2022-10-13T21:12:26.758Z,98193.34
2022-10-13T21:14:53.497Z,98191.38
2022-10-13T21:17:20.298Z,98195.25
2022-10-13T21:19:51.557Z,98204.19
2022-10-13T21:22:18.058Z,98190.63
2022-10-13T21:24:44.545Z,98194.09
2022-10-13T21:27:11.261Z,98193.69
2022-10-13T21:29:39.464Z,98193.69
2022-10-13T21:32:05.986Z,98189.81
2022-10-13T21:34:34.342Z,98192.50
2022-10-13T21:37:00.816Z,98187.44
2022-10-13T21:39:27.264Z,98192.13
2022-10-13T21:42:06.016Z,98193.69
2022-10-13T21:44:33.046Z,98193.25
2022-10-13T21:46:59.608Z,98190.94
2022-10-13T21:49:26.198Z,98191.28
2022-10-13T21:51:54.920Z,98188.56
2022-10-13T21:54:21.764Z,98188.56
2022-10-13T21:56:50.216Z,98187.38
2022-10-13T21:59:16.847Z,98183.09
2022-10-13T22:01:44.155Z,98188.13
2022-10-13T22:04:15.540Z,98185.00
2022-10-13T22:06:42.907Z,98181.13
2022-10-13T22:09:10.090Z,98175.28
2022-10-13T22:11:40.351Z,98175.66
2022-10-13T22:14:07.988Z,98176.06
2022-10-13T22:16:54.489Z,98182.63
2022-10-13T22:19:24.347Z,98184.56
2022-10-13T22:21:54.652Z,98178.34
2022-10-13T22:24:23.491Z,98190.00
2022-10-13T22:26:50.396Z,98185.34
2022-10-13T22:29:19.917Z,98178.34
2022-10-13T22:31:48.425Z,98191.16
2022-10-13T22:34:16.034Z,98185.72
2022-10-13T22:36:45.011Z,98184.56
2022-10-13T22:39:18.899Z,98186.50
2022-10-13T22:41:45.478Z,98187.28
2022-10-13T22:44:14.984Z,98183.44
2022-10-13T22:46:43.467Z,98186.13
2022-10-13T22:49:11.095Z,98172.56
2022-10-13T22:51:37.781Z,98171.00
2022-10-13T22:54:04.942Z,98162.44
2022-10-13T22:56:35.688Z,98167.88
2022-10-13T22:59:11.446Z,98153.91
2022-10-13T23:01:37.918Z,98151.97
2022-10-13T23:04:04.637Z,98151.59
2022-10-13T23:06:35.175Z,98144.97
2022-10-13T23:09:04.584Z,98150.78
2022-10-13T23:11:31.074Z,98140.31
2022-10-13T23:13:59.531Z,98145.28
2022-10-13T23:16:27.036Z,98138.72
2022-10-13T23:18:54.432Z,98145.66
2022-10-13T23:21:23.378Z,98138.66
2022-10-13T23:23:58.042Z,98138.66
2022-10-13T23:26:29.106Z,98142.94
2022-10-13T23:28:56.682Z,98133.63
2022-10-13T23:31:23.651Z,98137.91
2022-10-13T23:33:50.649Z,98135.19
2022-10-13T23:36:20.035Z,98142.19
2022-10-13T23:38:46.782Z,98140.63
2022-10-13T23:41:15.462Z,98143.75
2022-10-13T23:43:42.443Z,98136.38
2022-10-13T23:46:10.723Z,98137.16
2022-10-13T23:48:40.140Z,98137.16
2022-10-13T23:51:13.245Z,98128.63
2022-10-13T23:53:40.503Z,98132.91
2022-10-13T23:56:10.477Z,98130.97
2022-10-13T23:58:38.847Z,98120.47
